Time;durP1;ratioP1;P1;durP2;ratioP2;P2;SDS_P1;SDS_P2;PMS_P1;PMS_P2;Temp;Humidity;BMP_temperature;BMP_pressure;BME280_temperature;BME280_humidity;BME280_pressure;Samples;Min_cycle;Max_cycle;Signal;HPM_P1;HPM_P2
2022/07/26 00:01:30;;;;;;;9.88;2.30;;;21.80;90.60;;;;;;5019016;28;20033;-85
2022/07/26 00:03:56;;;;;;;10.88;2.63;;;21.80;90.70;;;;;;5019182;28;20112;-85
2022/07/26 00:06:24;;;;;;;9.60;1.98;;;21.80;90.80;;;;;;5036597;28;20060;-85
2022/07/26 00:08:50;;;;;;;6.85;2.45;;;21.80;90.80;;;;;;5037141;28;20030;-85
2022/07/26 00:11:16;;;;;;;10.02;2.22;;;21.70;90.80;;;;;;5019325;28;20362;-85
2022/07/26 00:13:42;;;;;;;7.82;2.60;;;21.70;90.90;;;;;;5036686;28;20017;-85
2022/07/26 00:16:08;;;;;;;11.52;3.67;;;21.70;91.00;;;;;;5018851;28;20526;-85
2022/07/26 00:18:34;;;;;;;7.93;2.47;;;21.70;91.10;;;;;;5035180;28;20026;-85
2022/07/26 00:21:00;;;;;;;7.75;1.95;;;21.70;91.10;;;;;;5002473;28;20463;-85
2022/07/26 00:23:25;;;;;;;8.93;2.00;;;21.70;91.20;;;;;;5025529;28;20092;-85
2022/07/26 00:25:51;;;;;;;9.93;2.10;;;21.70;91.20;;;;;;5026068;28;20057;-85
2022/07/26 00:28:17;;;;;;;7.00;1.90;;;21.70;91.10;;;;;;5002529;28;20504;-85
2022/07/26 00:30:42;;;;;;;10.73;2.22;;;21.70;91.10;;;;;;5022395;28;20032;-85
2022/07/26 00:33:08;;;;;;;8.13;1.88;;;21.70;91.20;;;;;;5035164;28;20030;-85
2022/07/26 00:35:34;;;;;;;10.15;2.45;;;21.60;91.20;;;;;;5004633;28;20033;-85
2022/07/26 00:37:59;;;;;;;11.10;2.60;;;21.60;91.20;;;;;;5011362;28;20485;-85
2022/07/26 00:40:25;;;;;;;10.68;2.97;;;21.50;91.20;;;;;;5008661;28;20030;-85
2022/07/26 00:42:51;;;;;;;12.13;2.40;;;21.40;91.20;;;;;;5017517;28;20025;-85
2022/07/26 00:45:17;;;;;;;10.43;2.00;;;21.40;91.40;;;;;;5018574;28;20033;-85
2022/07/26 00:47:43;;;;;;;7.95;2.17;;;21.40;91.50;;;;;;5017988;28;20028;-85
2022/07/26 00:50:12;;;;;;;10.05;2.17;;;21.40;91.50;;;;;;5026797;28;20033;-85
2022/07/26 00:52:38;;;;;;;10.18;2.20;;;21.30;91.60;;;;;;4999110;28;20096;-85
2022/07/26 00:55:06;;;;;;;6.90;1.90;;;21.30;91.70;;;;;;5034671;28;20018;-85
2022/07/26 00:57:34;;;;;;;7.30;1.88;;;21.30;91.80;;;;;;5034867;28;20026;-85
2022/07/26 01:00:01;;;;;;;5.40;1.88;;;21.30;91.90;;;;;;5035684;28;20451;-85
2022/07/26 01:02:27;;;;;;;9.68;1.98;;;21.30;92.00;;;;;;5018063;28;20026;-85
2022/07/26 01:04:52;;;;;;;7.60;1.70;;;21.30;92.00;;;;;;5000138;28;20485;-85
2022/07/26 01:07:18;;;;;;;6.45;1.70;;;21.30;92.00;;;;;;5008175;28;20552;-85
2022/07/26 01:09:44;;;;;;;7.68;2.03;;;21.30;92.10;;;;;;5017651;28;20393;-85
2022/07/26 01:12:10;;;;;;;9.18;2.15;;;21.30;92.10;;;;;;5034449;28;20160;-85
2022/07/26 01:14:36;;;;;;;9.82;2.15;;;21.30;92.20;;;;;;5021359;28;20079;-85
2022/07/26 01:17:02;;;;;;;7.00;1.95;;;21.20;92.20;;;;;;5020557;28;20036;-85
2022/07/26 01:19:27;;;;;;;8.57;1.95;;;21.20;92.30;;;;;;5034202;28;20040;-84
2022/07/26 01:21:53;;;;;;;11.07;2.22;;;21.20;92.40;;;;;;5030143;28;20026;-85
2022/07/26 01:24:19;;;;;;;8.35;1.80;;;21.20;92.50;;;;;;5008014;28;20036;-85
2022/07/26 01:26:45;;;;;;;10.68;2.35;;;21.20;92.60;;;;;;5017279;28;20037;-85
2022/07/26 01:29:10;;;;;;;11.55;2.85;;;21.20;92.60;;;;;;5014638;28;20022;-85
2022/07/26 01:31:36;;;;;;;10.88;2.75;;;21.20;92.70;;;;;;5010680;28;20029;-85
2022/07/26 01:34:02;;;;;;;8.52;1.77;;;21.20;92.80;;;;;;5033745;28;20053;-85
2022/07/26 01:36:27;;;;;;;9.18;2.10;;;21.20;92.90;;;;;;5033936;28;20088;-85
2022/07/26 01:38:53;;;;;;;9.52;2.22;;;21.10;92.90;;;;;;5017147;28;20075;-85
2022/07/26 01:41:19;;;;;;;7.25;2.40;;;21.10;93.00;;;;;;5034256;28;20083;-85
2022/07/26 01:43:45;;;;;;;12.05;2.67;;;21.10;93.20;;;;;;5033673;28;20473;-85
2022/07/26 01:46:12;;;;;;;10.85;2.30;;;21.10;93.30;;;;;;5033634;28;20037;-85
2022/07/26 01:48:38;;;;;;;12.20;2.60;;;21.00;93.40;;;;;;5033479;28;20034;-85
2022/07/26 01:51:04;;;;;;;11.20;2.70;;;21.00;93.50;;;;;;5034115;28;20384;-85
2022/07/26 01:53:30;;;;;;;10.93;2.30;;;21.00;93.60;;;;;;5034873;28;20029;-85
2022/07/26 01:55:56;;;;;;;10.48;2.50;;;21.00;93.80;;;;;;5033566;28;20018;-85
2022/07/26 01:58:22;;;;;;;10.95;2.63;;;21.00;93.90;;;;;;5013647;28;20022;-85
2022/07/26 02:00:48;;;;;;;11.23;2.83;;;21.00;94.10;;;;;;5030054;28;20496;-85
2022/07/26 02:03:13;;;;;;;8.07;2.15;;;21.00;94.10;;;;;;5009715;28;20156;-85
2022/07/26 02:05:39;;;;;;;11.82;2.58;;;21.00;94.20;;;;;;4993147;28;20029;-84
2022/07/26 02:08:05;;;;;;;12.10;2.45;;;21.00;94.40;;;;;;5034330;28;20436;-85
2022/07/26 02:13:15;;;;;;;12.52;2.90;;;20.90;94.60;;;;;;5034603;28;20033;-85
2022/07/26 02:15:41;;;;;;;10.68;2.60;;;20.90;94.90;;;;;;5034199;28;20025;-85
2022/07/26 02:18:07;;;;;;;9.60;2.38;;;20.90;95.10;;;;;;5030454;28;20440;-85
2022/07/26 02:20:33;;;;;;;8.35;2.35;;;20.90;95.40;;;;;;5032863;28;20021;-85
2022/07/26 02:23:03;;;;;;;11.05;2.70;;;20.80;95.50;;;;;;5033003;28;20076;-85
2022/07/26 02:25:29;;;;;;;9.68;3.25;;;20.80;95.90;;;;;;5016532;28;20036;-85
2022/07/26 02:27:55;;;;;;;9.57;2.90;;;20.80;96.20;;;;;;5034014;28;20025;-85
2022/07/26 02:30:21;;;;;;;9.60;2.70;;;20.70;96.50;;;;;;5032763;28;20025;-85
2022/07/26 02:32:46;;;;;;;8.70;2.80;;;20.70;96.80;;;;;;5033628;28;20029;-85
2022/07/26 02:35:13;;;;;;;9.25;2.40;;;20.70;97.00;;;;;;5033472;28;20504;-85
2022/07/26 02:37:41;;;;;;;8.93;2.83;;;20.70;97.20;;;;;;5033922;28;20025;-85
2022/07/26 02:40:08;;;;;;;9.00;3.00;;;20.70;97.50;;;;;;5003345;28;20117;-85
2022/07/26 02:42:33;;;;;;;6.68;2.40;;;20.70;97.70;;;;;;5033095;28;20025;-85
2022/07/26 02:44:59;;;;;;;9.27;3.13;;;20.70;97.90;;;;;;5033885;28;20032;-85
2022/07/26 02:47:25;;;;;;;8.48;2.60;;;20.70;98.10;;;;;;5015922;28;20018;-85
2022/07/26 02:49:50;;;;;;;7.68;2.88;;;20.70;98.20;;;;;;5006228;28;20033;-85
2022/07/26 02:52:17;;;;;;;8.45;2.70;;;20.70;98.40;;;;;;5015978;28;20036;-84
2022/07/26 02:54:42;;;;;;;9.35;2.85;;;20.60;98.50;;;;;;5016065;28;20029;-85
2022/07/26 02:57:08;;;;;;;8.80;2.70;;;20.60;98.70;;;;;;5002943;28;20029;-85
2022/07/26 02:59:34;;;;;;;9.60;2.70;;;20.60;98.90;;;;;;5015347;28;20021;-85
2022/07/26 03:02:00;;;;;;;8.38;2.78;;;20.60;99.00;;;;;;5023860;28;20481;-85
2022/07/26 03:04:26;;;;;;;5.72;2.17;;;20.60;99.10;;;;;;5033718;28;20057;-85
2022/07/26 03:06:51;;;;;;;9.43;2.63;;;20.60;99.30;;;;;;5009819;28;20041;-85
2022/07/26 03:09:17;;;;;;;6.88;2.13;;;20.60;99.40;;;;;;5027714;28;20116;-84
2022/07/26 03:11:42;;;;;;;7.82;2.53;;;20.60;99.50;;;;;;5032413;28;20052;-85
2022/07/26 03:14:08;;;;;;;6.50;2.35;;;20.60;99.60;;;;;;4989851;28;20053;-85
2022/07/26 03:16:34;;;;;;;5.78;2.45;;;20.60;99.80;;;;;;4983034;28;20045;-85
2022/07/26 03:19:00;;;;;;;10.25;3.25;;;20.60;99.90;;;;;;4990860;28;20025;-85
2022/07/26 03:21:27;;;;;;;8.35;3.10;;;20.60;99.90;;;;;;5033309;28;20536;-84
2022/07/26 03:23:52;;;;;;;6.53;2.70;;;20.60;99.90;;;;;;5033510;28;20025;-85
2022/07/26 03:26:19;;;;;;;8.38;2.70;;;20.50;99.90;;;;;;5027617;28;20388;-85
2022/07/26 03:28:45;;;;;;;7.88;3.00;;;20.60;99.90;;;;;;5029810;28;20022;-85
2022/07/26 03:31:11;;;;;;;7.18;2.80;;;20.50;99.90;;;;;;5005478;28;20028;-85
2022/07/26 03:33:38;;;;;;;9.15;3.50;;;20.50;99.90;;;;;;5013776;28;20022;-85
2022/07/26 03:36:05;;;;;;;10.75;3.13;;;20.50;99.90;;;;;;5007840;28;20501;-85
2022/07/26 03:38:31;;;;;;;9.50;3.53;;;20.50;99.90;;;;;;4977326;28;20021;-85
2022/07/26 03:40:56;;;;;;;11.40;3.47;;;20.50;99.90;;;;;;5015585;28;20392;-85
2022/07/26 03:43:22;;;;;;;9.00;3.08;;;20.50;99.90;;;;;;5015549;28;20079;-85
2022/07/26 03:45:48;;;;;;;12.55;3.95;;;20.50;99.90;;;;;;5015759;28;20373;-85
2022/07/26 03:48:13;;;;;;;8.15;2.90;;;20.50;99.90;;;;;;5021945;28;20025;-85
2022/07/26 03:50:39;;;;;;;8.35;3.13;;;20.50;99.90;;;;;;5016094;28;20465;-85
2022/07/26 03:53:05;;;;;;;8.73;3.25;;;20.50;99.90;;;;;;5019675;28;20025;-86
2022/07/26 03:58:15;;;;;;;9.63;3.58;;;20.50;99.90;;;;;;5033371;28;20163;-85
2022/07/26 04:00:41;;;;;;;6.57;2.75;;;20.50;99.90;;;;;;5018672;28;20025;-85
2022/07/26 04:03:07;;;;;;;8.18;3.15;;;20.50;99.90;;;;;;4985797;28;20028;-86
2022/07/26 04:05:32;;;;;;;7.78;2.80;;;20.50;99.90;;;;;;4987412;28;20104;-85
2022/07/26 04:07:58;;;;;;;10.48;3.08;;;20.50;99.90;;;;;;5011632;28;20061;-85
2022/07/26 04:10:24;;;;;;;7.25;2.85;;;20.40;99.90;;;;;;5031369;28;20508;-85
2022/07/26 04:12:49;;;;;;;10.48;3.10;;;20.40;99.90;;;;;;4982315;28;20095;-85
2022/07/26 04:15:17;;;;;;;9.70;3.35;;;20.40;99.90;;;;;;5014798;28;20076;-86
2022/07/26 04:17:43;;;;;;;8.93;3.08;;;20.50;99.90;;;;;;4998758;28;20113;-85
2022/07/26 04:20:11;;;;;;;16.10;4.03;;;20.40;99.90;;;;;;5031390;28;20045;-85
2022/07/26 04:22:38;;;;;;;12.80;3.00;;;20.40;99.90;;;;;;4998932;28;20025;-85
2022/07/26 04:25:05;;;;;;;9.38;3.47;;;20.40;99.90;;;;;;5032705;28;20079;-85
2022/07/26 04:27:31;;;;;;;10.98;2.90;;;20.40;99.90;;;;;;5014683;28;20024;-85
2022/07/26 04:29:57;;;;;;;12.07;3.95;;;20.40;99.90;;;;;;5034751;28;20030;-85
2022/07/26 04:32:23;;;;;;;13.57;3.13;;;20.30;99.90;;;;;;5034858;28;20496;-85
2022/07/26 04:34:48;;;;;;;12.02;3.28;;;20.30;99.90;;;;;;5018435;28;20082;-86
2022/07/26 04:37:14;;;;;;;12.82;4.15;;;20.30;99.90;;;;;;5031480;28;20057;-86
2022/07/26 04:39:40;;;;;;;11.13;3.97;;;20.30;99.90;;;;;;5008065;28;20080;-85
2022/07/26 04:42:05;;;;;;;14.55;3.78;;;20.30;99.90;;;;;;5001945;28;20029;-86
2022/07/26 04:44:31;;;;;;;9.02;3.42;;;20.20;99.90;;;;;;5018287;28;20034;-86
2022/07/26 04:46:57;;;;;;;11.95;3.35;;;20.20;99.90;;;;;;4985806;28;20400;-86
2022/07/26 04:49:22;;;;;;;8.00;3.10;;;20.20;99.90;;;;;;5003773;28;20064;-86
2022/07/26 04:51:48;;;;;;;10.98;3.78;;;20.20;99.90;;;;;;5007647;28;20052;-86
2022/07/26 04:54:19;;;;;;;8.20;2.88;;;20.20;99.90;;;;;;5035776;28;20431;-86
2022/07/26 04:56:48;;;;;;;9.05;3.55;;;20.20;99.90;;;;;;5014417;28;20112;-85
2022/07/26 04:59:14;;;;;;;10.75;3.42;;;20.20;99.90;;;;;;5035627;28;20017;-84
2022/07/26 05:01:40;;;;;;;11.43;3.95;;;20.20;99.90;;;;;;5001707;28;20021;-85
2022/07/26 05:04:05;;;;;;;11.52;3.80;;;20.20;99.90;;;;;;5035715;28;20112;-84
2022/07/26 05:06:31;;;;;;;10.27;3.83;;;20.20;99.90;;;;;;5001341;28;20053;-85
2022/07/26 05:08:57;;;;;;;11.60;3.50;;;20.20;99.90;;;;;;5011388;28;20021;-85
2022/07/26 05:11:24;;;;;;;13.48;3.72;;;20.20;99.90;;;;;;4994684;28;20021;-85
2022/07/26 05:13:50;;;;;;;12.90;3.42;;;20.20;99.90;;;;;;5031567;28;20053;-85
2022/07/26 05:16:15;;;;;;;11.02;3.83;;;20.20;99.90;;;;;;5001396;28;20048;-85
2022/07/26 05:18:41;;;;;;;10.70;3.35;;;20.20;99.90;;;;;;5017430;28;20051;-85
2022/07/26 05:21:07;;;;;;;11.27;3.33;;;20.20;99.90;;;;;;5023214;28;20366;-85
2022/07/26 05:23:33;;;;;;;8.15;2.90;;;20.20;99.90;;;;;;5012504;28;20036;-85
2022/07/26 05:25:58;;;;;;;10.57;3.40;;;20.20;99.90;;;;;;5002346;28;20365;-85
2022/07/26 05:28:24;;;;;;;7.93;3.20;;;20.20;99.90;;;;;;5007039;28;20407;-85
2022/07/26 05:30:50;;;;;;;9.75;3.15;;;20.20;99.90;;;;;;5019923;28;20047;-85
2022/07/26 05:33:15;;;;;;;8.13;2.83;;;20.20;99.90;;;;;;5036230;28;20028;-85
2022/07/26 05:35:41;;;;;;;8.68;2.95;;;20.20;99.90;;;;;;5036246;28;20026;-86
2022/07/26 05:38:07;;;;;;;9.63;2.90;;;20.30;99.90;;;;;;5013707;28;20485;-86
2022/07/26 05:40:32;;;;;;;10.50;3.00;;;20.30;99.90;;;;;;5027372;28;20484;-84
2022/07/26 05:42:58;;;;;;;10.70;3.03;;;20.30;99.90;;;;;;5022702;28;20029;-85
2022/07/26 05:45:24;;;;;;;10.00;3.03;;;20.30;99.90;;;;;;4985152;28;20018;-85
2022/07/26 05:47:50;;;;;;;6.75;2.40;;;20.40;99.90;;;;;;5023172;28;20453;-85
2022/07/26 05:50:16;;;;;;;7.45;2.40;;;20.40;99.90;;;;;;5016334;28;20030;-85
2022/07/26 05:52:42;;;;;;;7.05;2.00;;;20.40;99.90;;;;;;5016104;28;20710;-85
2022/07/26 05:55:10;;;;;;;7.68;2.33;;;20.40;99.90;;;;;;4996594;28;20489;-85
2022/07/26 05:57:40;;;;;;;9.55;2.40;;;20.40;99.90;;;;;;5034771;28;20427;-85
2022/07/26 06:00:08;;;;;;;6.30;2.10;;;20.40;99.90;;;;;;5034406;28;20041;-85
2022/07/26 06:02:34;;;;;;;8.68;2.30;;;20.50;99.90;;;;;;5007802;28;20029;-85
2022/07/26 06:04:59;;;;;;;6.97;1.92;;;20.50;99.90;;;;;;5014105;28;20028;-85
2022/07/26 06:07:25;;;;;;;12.50;3.20;;;20.50;99.90;;;;;;4977567;28;20054;-85
2022/07/26 06:09:50;;;;;;;7.05;2.00;;;20.50;99.90;;;;;;4993056;28;20464;-85
2022/07/26 06:12:16;;;;;;;9.15;2.00;;;20.50;99.90;;;;;;4985919;28;20026;-85
2022/07/26 06:14:42;;;;;;;7.07;2.20;;;20.50;99.90;;;;;;4996900;28;20061;-84
2022/07/26 06:17:08;;;;;;;5.78;1.83;;;20.50;99.90;;;;;;5000162;28;20026;-85
2022/07/26 06:19:33;;;;;;;7.05;1.67;;;20.50;99.90;;;;;;4980740;28;20432;-85
2022/07/26 06:21:59;;;;;;;7.20;2.05;;;20.50;99.90;;;;;;5013035;28;20601;-85
2022/07/26 06:24:25;;;;;;;5.30;1.80;;;20.50;99.90;;;;;;5000610;28;20549;-85
2022/07/26 06:26:52;;;;;;;6.43;2.17;;;20.60;99.90;;;;;;4993287;28;20084;-85
2022/07/26 06:29:18;;;;;;;6.78;1.98;;;20.60;99.90;;;;;;5014203;28;20026;-84
2022/07/26 06:31:43;;;;;;;6.03;1.70;;;20.60;99.90;;;;;;5024173;28;20022;-85
2022/07/26 06:34:09;;;;;;;4.90;1.80;;;20.60;99.90;;;;;;4996662;28;20032;-85
2022/07/26 06:36:34;;;;;;;4.53;1.52;;;20.60;99.90;;;;;;4997674;28;20421;-85
2022/07/26 06:39:00;;;;;;;7.70;1.67;;;20.60;99.90;;;;;;4995352;28;20491;-85
2022/07/26 06:41:26;;;;;;;3.85;1.48;;;20.60;99.90;;;;;;4977213;28;20038;-85
2022/07/26 06:43:52;;;;;;;4.22;1.48;;;20.60;99.90;;;;;;4992667;28;20077;-85
2022/07/26 06:46:19;;;;;;;5.35;1.50;;;20.60;99.90;;;;;;5004446;28;20062;-85
2022/07/26 06:48:45;;;;;;;5.32;1.45;;;20.60;99.90;;;;;;4972947;28;20037;-85
2022/07/26 06:51:11;;;;;;;5.63;1.50;;;20.70;99.90;;;;;;4995829;28;20069;-85
2022/07/26 06:53:37;;;;;;;4.78;1.60;;;20.70;99.90;;;;;;4993340;28;20053;-85
2022/07/26 06:56:03;;;;;;;6.65;1.92;;;20.70;99.90;;;;;;4997099;28;20038;-85
2022/07/26 06:58:29;;;;;;;5.45;1.50;;;20.70;99.90;;;;;;4998093;28;20084;-85
2022/07/26 07:00:54;;;;;;;6.47;1.50;;;20.70;99.90;;;;;;4980600;28;20022;-85
2022/07/26 07:03:20;;;;;;;5.65;1.60;;;20.70;99.90;;;;;;5009998;28;20030;-85
2022/07/26 07:05:46;;;;;;;6.00;1.30;;;20.70;99.90;;;;;;5009757;28;20393;-85
2022/07/26 07:08:12;;;;;;;3.67;1.73;;;20.80;99.90;;;;;;4983227;28;20486;-85
2022/07/26 07:10:38;;;;;;;5.68;1.63;;;20.80;99.90;;;;;;5012685;28;20440;-85
2022/07/26 07:13:04;;;;;;;5.55;1.40;;;20.80;99.90;;;;;;4996017;28;20032;-84
2022/07/26 07:15:30;;;;;;;8.63;2.55;;;20.80;99.90;;;;;;4998748;28;20026;-85
2022/07/26 07:17:55;;;;;;;5.95;1.83;;;20.80;99.90;;;;;;5024410;28;20026;-85
2022/07/26 07:20:21;;;;;;;5.57;1.40;;;20.80;99.90;;;;;;4983458;28;20068;-86
2022/07/26 07:22:46;;;;;;;2.88;1.10;;;20.80;99.90;;;;;;5006935;28;20025;-85
2022/07/26 07:25:12;;;;;;;2.13;1.00;;;20.80;99.90;;;;;;5032920;28;20040;-85
2022/07/26 07:27:38;;;;;;;2.38;0.95;;;20.90;99.90;;;;;;5003329;28;20112;-84
2022/07/26 07:30:05;;;;;;;2.72;1.00;;;20.90;99.90;;;;;;5033756;28;20021;-84
2022/07/26 07:32:30;;;;;;;2.30;0.80;;;20.90;99.90;;;;;;5033253;28;20018;-85
2022/07/26 07:34:56;;;;;;;3.72;1.20;;;20.90;99.90;;;;;;4999293;28;20075;-85
2022/07/26 07:37:22;;;;;;;4.35;1.20;;;20.90;99.90;;;;;;4999036;28;20120;-84
2022/07/26 07:39:48;;;;;;;4.85;1.08;;;20.90;99.90;;;;;;5033375;28;20025;-84
2022/07/26 07:42:13;;;;;;;4.53;1.40;;;20.90;99.90;;;;;;5033081;28;20112;-84
2022/07/26 07:44:40;;;;;;;3.53;1.13;;;20.90;99.90;;;;;;4982869;28;20018;-84
2022/07/26 07:47:07;;;;;;;5.05;1.30;;;20.90;99.90;;;;;;4999122;28;20022;-85
2022/07/26 07:49:33;;;;;;;4.88;1.42;;;20.90;99.90;;;;;;5016246;28;20037;-83
2022/07/26 07:51:59;;;;;;;4.88;1.63;;;20.90;99.90;;;;;;5000480;28;20026;-84
2022/07/26 07:54:25;;;;;;;4.80;1.40;;;20.90;99.90;;;;;;5021191;28;20037;-83
2022/07/26 07:56:51;;;;;;;5.75;1.20;;;20.80;99.90;;;;;;5033311;28;20025;-84
2022/07/26 07:59:17;;;;;;;8.00;2.38;;;20.80;99.90;;;;;;5015497;28;20076;-84
2022/07/26 08:01:43;;;;;;;5.47;1.88;;;20.70;99.90;;;;;;5015195;28;20041;-85
2022/07/26 08:04:09;;;;;;;4.28;1.20;;;20.70;99.90;;;;;;5025616;28;20033;-83
2022/07/26 08:06:35;;;;;;;4.97;1.58;;;20.70;99.90;;;;;;5034638;28;20049;-84
2022/07/26 08:09:00;;;;;;;2.88;1.23;;;20.70;99.90;;;;;;5035883;28;20709;-84
2022/07/26 08:11:26;;;;;;;5.90;1.15;;;20.70;99.90;;;;;;5017601;28;20083;-84
2022/07/26 08:13:52;;;;;;;6.20;1.63;;;20.70;99.90;;;;;;5001322;28;20441;-84
2022/07/26 08:16:18;;;;;;;4.45;1.40;;;20.70;99.90;;;;;;5036567;28;20025;-84
2022/07/26 08:18:43;;;;;;;3.42;1.17;;;20.70;99.90;;;;;;5018609;28;20037;-84
2022/07/26 08:21:09;;;;;;;6.88;1.73;;;20.60;99.90;;;;;;5002721;28;20496;-83
2022/07/26 08:23:34;;;;;;;3.75;1.58;;;20.70;99.90;;;;;;5028278;28;20499;-83
2022/07/26 08:26:00;;;;;;;5.78;1.48;;;20.70;99.90;;;;;;5003252;28;20486;-83
2022/07/26 08:28:27;;;;;;;3.25;1.33;;;20.70;99.90;;;;;;5018779;28;20037;-83
2022/07/26 08:30:53;;;;;;;2.42;1.17;;;20.70;99.90;;;;;;5018664;28;20014;-83
2022/07/26 08:33:18;;;;;;;2.35;0.95;;;20.70;99.90;;;;;;5001185;28;20044;-83
2022/07/26 08:35:44;;;;;;;4.07;1.00;;;20.70;99.90;;;;;;4989532;28;20354;-83
2022/07/26 08:38:10;;;;;;;2.03;0.82;;;20.70;99.90;;;;;;4994419;28;20093;-84
2022/07/26 08:40:36;;;;;;;3.40;1.02;;;20.70;99.90;;;;;;5003877;28;20079;-84
2022/07/26 08:43:02;;;;;;;2.88;0.90;;;20.70;99.90;;;;;;5022490;28;20029;-84
2022/07/26 08:45:30;;;;;;;1.70;0.90;;;20.70;99.90;;;;;;5014051;28;20108;-84
2022/07/26 08:48:00;;;;;;;3.13;0.90;;;20.70;99.90;;;;;;5021443;28;20021;-84
2022/07/26 08:50:27;;;;;;;6.05;1.25;;;20.70;99.90;;;;;;5020848;28;20014;-84
2022/07/26 08:52:57;;;;;;;2.13;0.90;;;20.70;99.90;;;;;;5034695;28;20429;-83
2022/07/26 08:55:22;;;;;;;2.87;1.10;;;20.70;99.90;;;;;;5018471;28;20021;-84
2022/07/26 08:57:48;;;;;;;3.67;1.30;;;20.70;99.90;;;;;;5035653;28;20831;-84
2022/07/26 09:00:20;;;;;;;5.60;1.10;;;20.70;99.90;;;;;;4985481;28;20053;-83
2022/07/26 09:02:47;;;;;;;3.35;0.95;;;20.70;99.90;;;;;;5017897;28;20056;-84
2022/07/26 09:05:14;;;;;;;4.07;1.00;;;20.80;99.90;;;;;;4998620;28;20385;-83
2022/07/26 09:07:40;;;;;;;3.58;1.30;;;20.80;99.90;;;;;;5010711;28;20049;-83
2022/07/26 09:10:09;;;;;;;2.65;1.30;;;20.80;99.90;;;;;;5035637;28;20029;-83
2022/07/26 09:12:36;;;;;;;2.92;1.30;;;20.80;99.90;;;;;;5006952;28;20022;-83
2022/07/26 09:15:05;;;;;;;4.70;2.05;;;20.80;99.90;;;;;;5014676;28;20104;-84
2022/07/26 09:17:43;;;;;;;3.00;1.40;;;20.90;99.90;;;;;;5035902;28;20034;-83
2022/07/26 09:20:30;;;;;;;3.38;1.20;;;20.90;99.90;;;;;;5031755;28;20049;-84
2022/07/26 09:23:04;;;;;;;1.90;0.93;;;21.00;99.90;;;;;;5025141;28;20033;-83
2022/07/26 09:25:33;;;;;;;4.95;1.20;;;21.00;99.90;;;;;;5035226;28;20018;-83
2022/07/26 09:27:59;;;;;;;2.55;1.33;;;20.90;99.90;;;;;;5022487;28;20034;-83
2022/07/26 09:30:26;;;;;;;2.08;1.15;;;21.00;99.90;;;;;;5033630;28;20033;-83
2022/07/26 09:32:59;;;;;;;4.80;1.35;;;21.00;99.90;;;;;;5024232;28;20026;-83
2022/07/26 09:35:26;;;;;;;2.83;0.75;;;21.00;99.90;;;;;;5035288;28;20021;-83
2022/07/26 09:37:52;;;;;;;3.80;0.80;;;21.00;99.90;;;;;;5017571;28;20075;-83
2022/07/26 09:40:18;;;;;;;3.10;0.95;;;21.00;99.90;;;;;;5019248;28;20033;-84
2022/07/26 09:42:58;;;;;;;2.55;0.70;;;21.00;99.90;;;;;;5030059;28;20104;-83
2022/07/26 09:45:25;;;;;;;3.72;0.80;;;21.00;99.90;;;;;;5046060;28;20018;-83
2022/07/26 09:47:52;;;;;;;2.10;0.70;;;21.00;99.90;;;;;;5024967;28;20026;-83
2022/07/26 09:50:20;;;;;;;3.90;1.02;;;21.00;99.90;;;;;;5029736;28;20071;-83
2022/07/26 09:53:12;;;;;;;3.85;0.70;;;21.00;99.90;;;;;;5039122;28;20014;-83
2022/07/26 09:55:44;;;;;;;4.15;0.85;;;20.90;99.90;;;;;;5007113;28;20098;-83
2022/07/26 09:58:12;;;;;;;3.13;0.80;;;20.90;99.90;;;;;;5019558;28;20627;-83
2022/07/26 10:00:39;;;;;;;4.40;1.10;;;20.90;99.90;;;;;;5038314;28;20045;-83
2022/07/26 10:03:04;;;;;;;3.08;0.73;;;20.90;99.90;;;;;;5020518;28;20041;-83
2022/07/26 10:05:32;;;;;;;6.78;1.20;;;20.90;99.90;;;;;;5003966;28;20033;-83
2022/07/26 10:07:58;;;;;;;4.13;1.00;;;20.90;99.90;;;;;;5033949;28;20107;-82
2022/07/26 10:10:40;;;;;;;2.13;0.80;;;20.90;99.90;;;;;;5002416;28;20034;-82
2022/07/26 10:13:07;;;;;;;2.65;0.80;;;20.90;99.90;;;;;;5009178;28;20501;-83
2022/07/26 10:15:41;;;;;;;3.70;0.80;;;20.90;99.90;;;;;;4997759;28;20102;-83
2022/07/26 10:18:09;;;;;;;2.70;0.73;;;20.90;99.90;;;;;;5016844;28;20085;-83
2022/07/26 10:23:03;;;;;;;3.05;0.88;;;20.90;99.90;;;;;;4973983;28;20113;-84
2022/07/26 10:25:31;;;;;;;2.38;0.70;;;20.90;99.90;;;;;;4933738;29;20462;-83
2022/07/26 10:27:57;;;;;;;4.18;0.88;;;20.90;99.90;;;;;;4951944;28;20030;-84
2022/07/26 10:30:25;;;;;;;5.60;1.27;;;20.90;99.90;;;;;;4923998;28;20524;-83
2022/07/26 10:33:00;;;;;;;3.45;0.82;;;20.90;99.90;;;;;;4957873;28;20019;-83
2022/07/26 10:35:43;;;;;;;3.35;0.95;;;20.90;99.90;;;;;;4957539;28;20026;-84
2022/07/26 10:38:24;;;;;;;6.30;1.35;;;20.90;99.90;;;;;;4975484;28;20031;-83
2022/07/26 10:41:29;;;;;;;2.13;0.70;;;20.90;99.90;;;;;;4975448;28;20370;-83
2022/07/26 10:44:14;;;;;;;3.30;0.77;;;20.80;99.90;;;;;;4954174;28;20114;-83
2022/07/26 10:47:06;;;;;;;2.65;0.80;;;20.80;99.90;;;;;;4940383;28;20023;-82
2022/07/26 10:49:37;;;;;;;2.97;0.88;;;20.80;99.90;;;;;;4955500;28;20023;-82
2022/07/26 10:52:21;;;;;;;2.90;1.00;;;20.80;99.90;;;;;;4959744;28;20030;-83
2022/07/26 10:55:06;;;;;;;5.18;1.13;;;20.80;99.90;;;;;;4954677;28;20021;-82
2022/07/26 10:57:37;;;;;;;3.70;1.00;;;20.70;99.90;;;;;;4957065;28;20015;-82
2022/07/26 11:00:09;;;;;;;2.75;0.90;;;20.70;99.90;;;;;;4957062;28;20033;-83
2022/07/26 11:02:35;;;;;;;3.30;0.70;;;20.70;99.90;;;;;;4957433;28;20027;-84
2022/07/26 11:05:12;;;;;;;4.30;1.00;;;20.70;99.90;;;;;;4952002;28;20037;-83
2022/07/26 11:08:04;;;;;;;3.60;0.85;;;20.70;99.90;;;;;;4957557;28;20035;-82
2022/07/26 11:10:42;;;;;;;2.97;1.30;;;20.80;99.90;;;;;;4957058;28;20223;-82
2022/07/26 11:13:19;;;;;;;4.18;1.10;;;20.70;99.90;;;;;;4955672;28;20027;-82
2022/07/26 11:15:46;;;;;;;6.70;1.40;;;20.80;99.90;;;;;;4956711;28;20500;-82
2022/07/26 11:18:21;;;;;;;3.75;1.02;;;20.80;99.90;;;;;;4956828;28;20034;-82
2022/07/26 11:20:51;;;;;;;2.97;1.20;;;20.80;99.90;;;;;;4955440;28;20106;-82
2022/07/26 11:23:31;;;;;;;5.68;1.70;;;20.80;99.90;;;;;;5001767;28;20097;-83
2022/07/26 11:26:18;;;;;;;5.72;1.30;;;20.90;99.90;;;;;;5002810;28;20022;-83
2022/07/26 11:29:00;;;;;;;4.25;1.10;;;20.80;99.90;;;;;;4996146;28;20433;-82
2022/07/26 11:31:37;;;;;;;4.25;1.40;;;20.90;99.90;;;;;;4995067;28;20014;-82
2022/07/26 11:34:03;;;;;;;3.10;1.10;;;20.90;99.90;;;;;;5002481;28;20010;-83
2022/07/26 11:36:40;;;;;;;4.03;1.15;;;20.90;99.90;;;;;;4963192;28;20033;-82
2022/07/26 11:39:08;;;;;;;4.32;1.48;;;20.90;99.90;;;;;;4963624;28;20034;-82
2022/07/26 11:41:34;;;;;;;4.90;1.45;;;20.90;99.90;;;;;;4979959;28;20014;-82
2022/07/26 11:44:01;;;;;;;3.92;1.23;;;21.00;99.90;;;;;;4945296;28;20070;-82
2022/07/26 11:46:33;;;;;;;5.35;1.30;;;21.00;99.90;;;;;;4972998;28;20038;-82
2022/07/26 11:49:00;;;;;;;2.80;1.10;;;21.00;99.90;;;;;;4979443;28;20027;-81
2022/07/26 11:51:25;;;;;;;5.20;1.48;;;21.00;99.90;;;;;;4964245;28;20031;-82
2022/07/26 11:53:58;;;;;;;4.90;1.27;;;21.00;99.90;;;;;;4980297;28;20025;-81
2022/07/26 11:56:26;;;;;;;4.05;1.13;;;21.10;99.90;;;;;;4980186;28;20101;-82
2022/07/26 11:58:54;;;;;;;3.97;1.40;;;21.10;99.90;;;;;;4979893;28;20023;-82
2022/07/26 12:01:21;;;;;;;3.58;1.33;;;21.10;99.90;;;;;;4992838;28;20033;-82
2022/07/26 12:03:50;;;;;;;3.85;1.33;;;21.20;99.90;;;;;;4996201;28;20469;-82
2022/07/26 12:06:21;;;;;;;4.35;1.02;;;21.10;99.90;;;;;;4996099;28;20041;-82
2022/07/26 12:08:53;;;;;;;7.50;1.30;;;21.10;99.90;;;;;;4997541;28;20022;-82
2022/07/26 12:11:20;;;;;;;3.42;0.98;;;21.10;99.90;;;;;;4997358;28;20110;-83
2022/07/26 12:13:53;;;;;;;2.92;1.00;;;21.10;99.90;;;;;;4996035;28;20471;-82
2022/07/26 12:16:38;;;;;;;4.72;1.00;;;21.10;99.90;;;;;;4985533;28;20026;-82
2022/07/26 12:19:10;;;;;;;3.58;1.13;;;21.10;99.90;;;;;;4988768;28;20038;-82
2022/07/26 12:21:40;;;;;;;4.00;1.02;;;21.20;99.90;;;;;;4976913;28;20057;-82
2022/07/26 12:24:07;;;;;;;4.35;0.85;;;21.20;99.90;;;;;;5013035;28;20034;-83
2022/07/26 12:26:33;;;;;;;3.35;0.98;;;21.20;99.90;;;;;;4972633;28;20026;-82
2022/07/26 12:29:23;;;;;;;2.28;0.70;;;21.20;99.90;;;;;;5022051;28;20029;-83
2022/07/26 12:31:45;;;;;;;3.33;0.90;;;21.20;99.90;;;;;;4990981;28;20035;-82
2022/07/26 12:34:11;;;;;;;3.38;0.90;;;21.20;99.90;;;;;;4986929;28;20034;-82
2022/07/26 12:36:37;;;;;;;3.92;1.00;;;21.20;99.90;;;;;;4972003;28;20027;-82
2022/07/26 12:39:04;;;;;;;6.55;0.90;;;21.20;99.90;;;;;;4991648;28;20089;-83
2022/07/26 12:41:39;;;;;;;2.85;1.00;;;21.30;99.90;;;;;;4977623;28;20433;-83
2022/07/26 12:44:06;;;;;;;3.38;1.05;;;21.30;99.90;;;;;;4988366;28;20033;-83
2022/07/26 12:46:33;;;;;;;3.08;1.00;;;21.30;99.90;;;;;;4968911;28;20030;-83
2022/07/26 12:48:59;;;;;;;4.40;1.23;;;21.30;99.90;;;;;;4954206;28;20118;-83
2022/07/26 12:51:25;;;;;;;10.82;2.15;;;21.30;99.90;;;;;;4959244;28;20033;-83
2022/07/26 12:53:51;;;;;;;4.93;1.17;;;21.40;99.90;;;;;;4946333;28;20023;-83
2022/07/26 12:56:16;;;;;;;6.50;1.92;;;21.40;99.90;;;;;;4944593;28;20566;-83